createdAt,value
2018-11-07T00:03:07.854Z,99842.27
2018-11-07T00:07:11.459Z,99846.67
2018-11-07T00:11:15.262Z,99849.77
2018-11-07T00:15:18.925Z,99847.99
2018-11-07T00:19:22.601Z,99836.56
2018-11-07T00:23:26.433Z,99840.52
2018-11-07T00:27:29.982Z,99838.33
2018-11-07T00:31:33.587Z,99841.84
2018-11-07T00:35:37.177Z,99836.56
2018-11-07T00:39:40.785Z,99839.66
2018-11-07T00:43:44.504Z,99844.05
2018-11-07T00:47:48.246Z,99835.72
2018-11-07T00:51:51.948Z,99834.84
2018-11-07T00:55:55.742Z,99830.88
2018-11-07T00:59:59.434Z,99826.92
2018-11-07T01:04:03.330Z,99815.95
2018-11-07T01:08:07.075Z,99822.08
2018-11-07T01:12:10.840Z,99821.62
2018-11-07T01:16:14.618Z,99829.98
2018-11-07T01:20:18.397Z,99823.41
2018-11-07T01:24:22.169Z,99823.84
2018-11-07T01:28:26.046Z,99829.52
2018-11-07T01:32:29.712Z,99829.09
2018-11-07T01:36:33.427Z,99829.09
2018-11-07T01:40:37.065Z,99826.03
2018-11-07T01:44:40.744Z,99835.25
2018-11-07T01:48:44.401Z,99838.33
2018-11-07T01:52:48.056Z,99835.24
2018-11-07T01:56:51.742Z,99829.95
2018-11-07T02:00:55.360Z,99826.44
2018-11-07T02:04:59.071Z,99803.61
2018-11-07T02:09:02.926Z,99798.78
2018-11-07T02:13:06.611Z,99799.23
2018-11-07T02:17:10.327Z,99793.52
2018-11-07T02:21:14.004Z,99797.01
2018-11-07T02:25:17.642Z,99805.35
2018-11-07T02:29:21.249Z,99805.80
2018-11-07T02:33:25.309Z,99805.78
2018-11-07T02:37:29.126Z,99814.55
2018-11-07T02:41:32.880Z,99815.85
2018-11-07T02:45:36.665Z,99822.87
2018-11-07T02:49:40.414Z,99832.52
2018-11-07T02:53:44.189Z,99835.59
2018-11-07T02:57:48.020Z,99828.14
2018-11-07T03:01:51.754Z,99825.05
2018-11-07T03:05:55.538Z,99828.12
2018-11-07T03:09:59.288Z,99829.00
2018-11-07T03:14:04.896Z,99834.67
2018-11-07T03:18:08.431Z,99838.19
2018-11-07T03:22:12.018Z,99835.99
2018-11-07T03:26:15.628Z,99835.98
2018-11-07T03:30:19.163Z,99842.11
2018-11-07T03:34:22.873Z,99837.25
2018-11-07T03:38:26.621Z,99843.81
2018-11-07T03:42:30.289Z,99838.53
2018-11-07T03:46:33.934Z,99846.41
2018-11-07T03:50:37.553Z,99849.91
2018-11-07T03:54:41.182Z,99850.79
2018-11-07T03:58:44.772Z,99856.91
2018-11-07T04:02:48.411Z,99850.77
2018-11-07T04:06:52.080Z,99851.66
2018-11-07T04:10:55.721Z,99850.77
2018-11-07T04:14:59.361Z,99837.58
2018-11-07T04:19:02.933Z,99830.56
2018-11-07T04:23:07.030Z,99834.94
2018-11-07T04:27:10.700Z,99834.93
2018-11-07T04:31:14.366Z,99846.78
2018-11-07T04:35:18.079Z,99845.03
2018-11-07T04:39:21.803Z,99849.83
2018-11-07T04:43:25.452Z,99847.17
2018-11-07T04:47:29.232Z,99855.47
2018-11-07T04:51:32.929Z,99858.97
2018-11-07T04:55:36.620Z,99853.27
2018-11-07T04:59:40.350Z,99854.11
2018-11-07T05:03:43.961Z,99858.42
2018-11-07T05:07:47.617Z,99863.27
2018-11-07T05:11:51.415Z,99866.29
2018-11-07T05:15:55.510Z,99863.66
2018-11-07T05:19:59.097Z,99872.41
2018-11-07T05:24:03.041Z,99879.84
2018-11-07T05:28:13.356Z,99882.98
2018-11-07T05:32:17.324Z,99888.24
2018-11-07T05:36:20.867Z,99899.71
2018-11-07T05:40:25.432Z,99898.77
2018-11-07T05:44:28.988Z,99899.63
2018-11-07T05:48:33.781Z,99904.42
2018-11-07T05:52:37.914Z,99899.58
2018-11-07T05:56:41.794Z,99903.97
2018-11-07T06:00:46.624Z,99914.92
2018-11-07T06:04:50.481Z,99917.09
2018-11-07T06:08:54.354Z,99904.84
2018-11-07T06:12:58.225Z,99916.67
2018-11-07T06:17:02.207Z,99914.45
2018-11-07T06:21:06.092Z,99913.59
2018-11-07T06:25:10.045Z,99914.48
2018-11-07T06:29:13.978Z,99921.52
2018-11-07T06:33:17.783Z,99925.46
2018-11-07T06:37:21.607Z,99926.79
2018-11-07T06:41:25.424Z,99934.27
2018-11-07T06:45:29.291Z,99940.48
2018-11-07T06:49:33.090Z,99932.59
2018-11-07T06:53:36.955Z,99933.48
2018-11-07T06:57:41.111Z,99940.52
2018-11-07T07:01:45.014Z,99940.54
2018-11-07T07:05:49.051Z,99954.13
2018-11-07T07:09:52.876Z,99955.08
2018-11-07T07:13:56.728Z,99952.48
2018-11-07T07:18:00.607Z,99944.59
2018-11-07T07:22:04.361Z,99947.24
2018-11-07T07:26:08.141Z,99952.93
2018-11-07T07:30:13.836Z,99960.39
2018-11-07T07:34:17.645Z,99960.44
2018-11-07T07:38:21.455Z,99966.17
2018-11-07T07:42:25.465Z,99967.48
2018-11-07T07:46:29.289Z,99964.88
2018-11-07T07:50:33.671Z,99969.27
2018-11-07T07:54:37.484Z,99963.13
2018-11-07T07:58:41.306Z,99971.02
2018-11-07T08:02:47.269Z,99974.56
2018-11-07T08:06:51.145Z,99964.03
2018-11-07T08:10:55.049Z,99964.94
2018-11-07T08:14:58.978Z,99966.69
2018-11-07T08:19:02.955Z,99971.98
2018-11-07T08:23:06.792Z,99968.95
2018-11-07T08:27:10.620Z,99961.53
2018-11-07T08:31:14.468Z,99964.22
2018-11-07T08:35:18.340Z,99968.66
2018-11-07T08:39:23.086Z,99967.81
2018-11-07T08:43:26.979Z,99972.23
2018-11-07T08:47:31.007Z,99981.91
2018-11-07T08:51:34.549Z,99977.99
2018-11-07T08:55:38.161Z,99965.71
2018-11-07T08:59:42.092Z,99970.56
2018-11-07T09:03:45.945Z,99974.08
2018-11-07T09:07:49.968Z,99972.81
2018-11-07T09:11:53.954Z,99969.34
2018-11-07T09:15:58.083Z,99960.11
2018-11-07T09:20:02.023Z,99947.37
2018-11-07T09:24:06.023Z,99966.27
2018-11-07T09:28:10.056Z,99954.83
2018-11-07T09:32:14.892Z,99943.84
2018-11-07T09:36:18.822Z,99951.78
2018-11-07T09:40:28.883Z,99941.63
2018-11-07T09:44:33.067Z,99938.52
2018-11-07T09:48:36.938Z,99945.55
2018-11-07T09:52:41.260Z,99934.08
2018-11-07T09:56:45.160Z,99937.54
2018-11-07T10:00:49.095Z,99930.42
2018-11-07T10:04:53.205Z,99911.88
2018-11-07T10:08:57.221Z,99906.06
2018-11-07T10:13:15.453Z,99900.69
2018-11-07T10:21:56.960Z,99896.00
2018-11-07T10:30:28.894Z,99890.45
2018-11-07T10:34:48.261Z,99893.00
2018-11-07T10:47:40.992Z,99883.27
2018-11-07T10:56:25.957Z,99872.59
2018-11-07T11:00:43.173Z,99864.14
2018-11-07T15:13:13.037Z,99798.00
2018-11-07T15:17:23.026Z,99787.39
2018-11-07T15:21:30.298Z,99787.42
2018-11-07T15:25:44.974Z,99790.11
2018-11-07T15:29:51.614Z,99793.69
2018-11-07T15:33:55.500Z,99785.33
2018-11-07T15:37:59.856Z,99790.63
2018-11-07T15:42:03.500Z,99783.16
2018-11-07T15:46:07.099Z,99784.52
2018-11-07T15:50:15.897Z,99777.53
2018-11-07T15:54:19.486Z,99781.55
2018-11-07T15:58:23.004Z,99788.23
2018-11-07T16:02:26.509Z,99795.75
2018-11-07T16:06:30.306Z,99796.23
2018-11-07T16:10:35.837Z,99799.33
2018-11-07T16:14:43.750Z,99812.58
2018-11-07T16:18:48.050Z,99820.52
2018-11-07T16:22:55.561Z,99818.75
2018-11-07T16:27:01.802Z,99823.64
2018-11-07T16:31:09.000Z,99808.63
2018-11-07T16:35:13.803Z,99813.09
2018-11-07T16:39:17.663Z,99808.27
2018-11-07T16:47:39.804Z,99828.59
2018-11-07T16:51:45.821Z,99827.73
2018-11-07T16:55:51.978Z,99832.57
2018-11-07T16:59:56.152Z,99826.82
2018-11-07T17:04:00.126Z,99842.69
2018-11-07T17:08:04.170Z,99853.75
2018-11-07T17:12:08.738Z,99848.48
2018-11-07T17:16:13.172Z,99853.33
2018-11-07T17:20:17.520Z,99841.90
2018-11-07T17:24:21.568Z,99838.84
2018-11-07T17:28:25.959Z,99834.44
2018-11-07T17:32:30.064Z,99837.58
2018-11-07T17:36:34.179Z,99845.12
2018-11-07T17:40:38.438Z,99844.75
2018-11-07T17:44:42.635Z,99843.91
2018-11-07T17:48:46.631Z,99846.56
2018-11-07T17:52:50.966Z,99849.22
2018-11-07T17:56:55.225Z,99852.35
2018-11-07T18:01:00.999Z,99855.87
2018-11-07T18:05:05.624Z,99862.50
2018-11-07T18:09:10.162Z,99859.92
2018-11-07T18:13:14.542Z,99856.84
2018-11-07T18:17:18.461Z,99853.78
2018-11-07T18:21:22.465Z,99848.05
2018-11-07T18:25:27.034Z,99850.30
2018-11-07T18:29:33.428Z,99853.83
2018-11-07T18:33:40.409Z,99858.72
2018-11-07T18:37:44.684Z,99861.84
2018-11-07T18:41:49.234Z,99866.28
2018-11-07T18:45:54.895Z,99867.63
2018-11-07T18:50:00.739Z,99876.89
2018-11-07T18:54:05.444Z,99879.11
2018-11-07T18:58:09.455Z,99869.02
2018-11-07T19:02:13.513Z,99868.57
2018-11-07T19:06:17.608Z,99866.39
2018-11-07T19:10:22.134Z,99876.11
2018-11-07T19:14:27.351Z,99871.30
2018-11-07T19:18:31.211Z,99874.41
2018-11-07T19:22:35.105Z,99882.80
2018-11-07T19:26:39.490Z,99883.21
2018-11-07T19:30:44.566Z,99877.50
2018-11-07T19:34:49.248Z,99879.69
2018-11-07T19:38:55.900Z,99892.92
2018-11-07T19:43:02.343Z,99890.72
2018-11-07T19:47:29.525Z,99877.92
2018-11-07T19:55:49.182Z,99900.45
2018-11-07T19:59:55.179Z,99893.44
2018-11-07T20:04:03.898Z,99887.26
2018-11-07T20:08:09.060Z,99882.39
2018-11-07T20:30:59.711Z,99898.36
2018-11-07T20:35:06.656Z,99906.70
2018-11-07T20:53:14.518Z,99902.34
2018-11-07T20:57:35.962Z,99907.63
2018-11-07T21:29:29.113Z,99902.87
2018-11-07T21:33:42.532Z,99909.03
